Santa Cruz das Palmeiras, Brazil
Current Conditions -  °F | °C
As of 6:00 PM on Sunday 23 Nov 2014 (Local Time) from SBYS Reporting Station
Broken Clouds Broken Clouds  
Wind Chill: 82°   Ceiling: 10000
Heat Index: 84°   Visibility: 6mi
Dew Point: 64°   Wind: 5mph
Humidity: 54%   Direction: 90°E
Pressure: 29.91"   Gusts: NA
Location:  21.83°S, 47.25°W
Report Text: SBYS 232000Z 09004KT 9999 SCT035 FEW040TCU BKN100 28/18 Q1013
Loading
Personal Weather Stations






























Interactive Weather Map New forecast layout! Learn more

10-Day Weather Forecast

Advertisements
Track Severe Weather on mobile